createdAt,value
2023-04-10T00:00:31.717Z,58.51
2023-04-10T00:03:20.695Z,58.38
2023-04-10T00:05:51.011Z,58.42
2023-04-10T00:08:20.032Z,58.94
2023-04-10T00:10:48.886Z,59.37
2023-04-10T00:13:18.544Z,59.22
2023-04-10T00:15:48.389Z,58.71
2023-04-10T00:18:17.770Z,59.17
2023-04-10T00:20:46.337Z,59.26
2023-04-10T00:23:15.207Z,59.70
2023-04-10T00:25:43.889Z,59.50
2023-04-10T00:28:12.873Z,59.44
2023-04-10T00:30:41.494Z,59.76
2023-04-10T00:33:11.010Z,59.92
2023-04-10T00:35:40.216Z,60.18
2023-04-10T00:38:09.996Z,60.07
2023-04-10T00:40:39.286Z,60.14
2023-04-10T00:43:08.380Z,60.12
2023-04-10T00:45:37.318Z,60.05
2023-04-10T00:48:06.888Z,60.35
2023-04-10T00:50:35.975Z,59.99
2023-04-10T00:53:05.232Z,59.55
2023-04-10T00:55:34.462Z,59.38
2023-04-10T00:58:03.144Z,59.26
2023-04-10T01:00:32.688Z,59.47
2023-04-10T01:03:02.125Z,59.04
2023-04-10T01:05:39.938Z,58.63
2023-04-10T01:08:32.030Z,58.85
2023-04-10T01:11:29.418Z,59.32
2023-04-10T01:14:07.758Z,59.87
2023-04-10T01:16:50.209Z,60.07
2023-04-10T01:20:01.322Z,60.12
2023-04-10T01:23:17.961Z,60.53
2023-04-10T01:25:54.393Z,61.06
2023-04-10T01:28:44.494Z,61.05
2023-04-10T01:31:20.434Z,60.85
2023-04-10T01:33:53.085Z,60.75
2023-04-10T01:36:37.564Z,60.74
2023-04-10T01:39:07.499Z,61.14
2023-04-10T01:41:37.909Z,60.82
2023-04-10T01:44:07.670Z,60.58
2023-04-10T01:46:38.789Z,60.31
2023-04-10T01:49:09.278Z,60.50
2023-04-10T01:51:38.943Z,60.93
2023-04-10T01:54:08.906Z,60.85
2023-04-10T01:56:39.355Z,60.58
2023-04-10T01:59:09.060Z,60.85
2023-04-10T02:01:38.399Z,60.93
2023-04-10T02:04:07.819Z,61.27
2023-04-10T02:06:58.490Z,61.26
2023-04-10T02:09:56.136Z,61.39
2023-04-10T02:12:31.767Z,61.33
2023-04-10T02:15:03.094Z,61.47
2023-04-10T02:17:34.307Z,61.44
2023-04-10T02:20:06.392Z,61.54
2023-04-10T02:22:35.568Z,61.36
2023-04-10T02:25:06.610Z,61.18
2023-04-10T02:27:37.244Z,61.52
2023-04-10T02:30:07.132Z,61.31
2023-04-10T02:32:36.058Z,61.56
2023-04-10T02:35:05.184Z,61.52
2023-04-10T02:37:35.114Z,61.25
2023-04-10T02:40:04.305Z,61.45
2023-04-10T02:42:33.185Z,61.56
2023-04-10T02:45:01.833Z,61.12
2023-04-10T02:47:31.018Z,60.86
2023-04-10T02:50:00.177Z,60.52
2023-04-10T02:52:29.162Z,60.79
2023-04-10T02:54:58.256Z,60.12
2023-04-10T02:57:29.300Z,59.96
2023-04-10T02:59:58.635Z,59.95
2023-04-10T03:02:27.657Z,60.21
2023-04-10T03:04:56.867Z,60.62
2023-04-10T03:07:26.138Z,60.72
2023-04-10T03:09:55.085Z,60.73
2023-04-10T03:12:24.214Z,60.81
2023-04-10T03:14:53.526Z,60.93
2023-04-10T03:17:22.839Z,61.37
2023-04-10T03:19:52.144Z,61.31
2023-04-10T03:22:21.785Z,61.26
2023-04-10T03:24:51.195Z,61.17
2023-04-10T03:27:21.198Z,61.59
2023-04-10T03:29:50.017Z,61.70
2023-04-10T03:32:19.266Z,61.65
2023-04-10T03:34:48.043Z,61.76
2023-04-10T03:37:16.938Z,61.92
2023-04-10T03:39:46.504Z,62.18
2023-04-10T03:42:15.752Z,62.67
2023-04-10T03:44:44.782Z,62.84
2023-04-10T03:47:14.076Z,62.52
2023-04-10T03:49:42.895Z,62.45
2023-04-10T03:52:11.702Z,62.70
2023-04-10T03:54:40.322Z,63.18
2023-04-10T03:57:09.507Z,62.96
2023-04-10T03:59:38.819Z,63.09
2023-04-10T04:02:08.175Z,62.84
2023-04-10T04:04:37.404Z,63.35
2023-04-10T04:07:06.469Z,63.72
2023-04-10T04:09:35.362Z,63.36
2023-04-10T04:12:03.974Z,63.45
2023-04-10T04:14:32.913Z,63.72
2023-04-10T04:17:02.142Z,63.77
2023-04-10T04:19:31.316Z,63.80
2023-04-10T04:22:00.789Z,63.57
2023-04-10T04:24:29.869Z,63.90
2023-04-10T04:26:58.335Z,63.96
2023-04-10T04:29:27.568Z,63.98
2023-04-10T04:31:56.359Z,63.76
2023-04-10T04:34:25.249Z,63.76
2023-04-10T04:36:54.055Z,63.74
2023-04-10T04:39:23.545Z,63.70
2023-04-10T04:41:52.423Z,63.69
2023-04-10T04:44:21.100Z,63.43
2023-04-10T04:46:49.816Z,63.01
2023-04-10T04:49:18.302Z,62.94
2023-04-10T04:51:47.310Z,63.09
2023-04-10T04:54:16.088Z,63.06
2023-04-10T04:56:45.038Z,62.99
2023-04-10T04:59:14.237Z,62.88
2023-04-10T05:01:42.983Z,63.21
2023-04-10T05:04:11.799Z,63.31
2023-04-10T05:06:40.670Z,63.20
2023-04-10T05:09:09.374Z,63.01
2023-04-10T05:11:38.480Z,63.05
2023-04-10T05:14:07.433Z,63.47
2023-04-10T05:16:36.606Z,62.95
2023-04-10T05:19:05.697Z,62.24
2023-04-10T05:21:36.021Z,61.71
2023-04-10T05:24:05.283Z,61.03
2023-04-10T05:26:34.622Z,60.67
2023-04-10T05:29:03.665Z,60.65
2023-04-10T05:31:32.742Z,60.31
2023-04-10T05:34:02.118Z,59.94
2023-04-10T05:36:32.460Z,59.38
2023-04-10T05:39:01.692Z,58.94
2023-04-10T05:41:30.277Z,58.90
2023-04-10T05:43:59.329Z,58.81
2023-04-10T05:46:28.347Z,59.06
2023-04-10T05:48:57.253Z,58.89
2023-04-10T05:51:27.647Z,58.85
2023-04-10T05:53:57.101Z,58.50
2023-04-10T05:56:25.991Z,58.40
2023-04-10T05:58:55.136Z,58.23
2023-04-10T06:01:23.975Z,58.29
2023-04-10T06:03:53.145Z,57.47
2023-04-10T06:06:22.718Z,57.10
2023-04-10T06:08:52.266Z,56.54
2023-04-10T06:11:22.327Z,56.53
2023-04-10T06:13:52.760Z,56.19
2023-04-10T06:16:21.855Z,55.73
2023-04-10T06:18:53.079Z,54.94
2023-04-10T06:21:21.862Z,53.91
2023-04-10T06:23:51.879Z,52.54
2023-04-10T06:26:21.281Z,50.96
2023-04-10T06:28:50.150Z,49.76
2023-04-10T06:31:22.318Z,48.49
2023-04-10T06:33:51.190Z,47.56
2023-04-10T06:36:20.040Z,46.76
2023-04-10T06:38:48.786Z,45.98
2023-04-10T06:41:18.451Z,44.86
2023-04-10T06:43:47.618Z,44.21
2023-04-10T06:46:16.636Z,42.53
2023-04-10T06:48:45.546Z,42.34
2023-04-10T06:51:14.235Z,41.82
2023-04-10T06:53:43.042Z,40.21
2023-04-10T06:56:11.817Z,39.49
2023-04-10T06:58:41.674Z,38.56
2023-04-10T07:01:10.809Z,37.77
2023-04-10T07:03:39.871Z,36.83
2023-04-10T07:06:13.131Z,36.32
2023-04-10T07:08:42.466Z,36.00
2023-04-10T07:11:13.112Z,35.39
2023-04-10T07:13:42.315Z,35.45
2023-04-10T07:16:13.181Z,34.53
2023-04-10T07:18:44.264Z,33.69
2023-04-10T07:21:14.339Z,32.97
2023-04-10T07:23:44.368Z,32.28
2023-04-10T07:26:15.059Z,32.21
2023-04-10T07:28:44.282Z,31.88
2023-04-10T07:31:14.685Z,31.34
2023-04-10T07:33:47.626Z,30.05
2023-04-10T07:36:17.873Z,30.42
2023-04-10T07:38:47.662Z,29.84
2023-04-10T07:41:17.069Z,29.75
2023-04-10T07:43:46.941Z,29.15
2023-04-10T07:46:18.667Z,28.87
2023-04-10T07:48:51.302Z,27.84
2023-04-10T07:51:21.991Z,27.79
2023-04-10T07:53:51.924Z,27.31
2023-04-10T07:56:22.265Z,26.89
2023-04-10T07:58:52.515Z,26.83
2023-04-10T08:01:22.322Z,26.52
2023-04-10T08:03:53.138Z,26.32
2023-04-10T08:06:23.293Z,25.73
2023-04-10T08:08:56.255Z,25.42
2023-04-10T08:11:31.369Z,25.12
2023-04-10T08:14:02.854Z,25.47
2023-04-10T08:16:34.847Z,26.17
2023-04-10T08:19:04.954Z,27.61
2023-04-10T08:21:33.970Z,28.09
2023-04-10T08:24:04.758Z,28.38
2023-04-10T08:26:34.215Z,29.28
2023-04-10T08:29:04.459Z,30.10
2023-04-10T08:31:34.505Z,30.43
2023-04-10T08:34:05.074Z,31.30
2023-04-10T08:36:35.615Z,31.03
2023-04-10T08:39:05.484Z,30.66
2023-04-10T08:41:34.589Z,28.99
2023-04-10T08:44:06.956Z,28.07
2023-04-10T08:46:38.193Z,28.19
2023-04-10T08:49:08.243Z,27.14
2023-04-10T08:51:48.670Z,26.33
2023-04-10T08:54:21.914Z,25.38
2023-04-10T08:56:54.634Z,24.09
2023-04-10T08:59:23.843Z,23.77
2023-04-10T09:01:53.897Z,22.88
2023-04-10T09:04:26.967Z,22.55
2023-04-10T09:06:56.218Z,22.34
2023-04-10T09:09:25.717Z,22.53
2023-04-10T09:11:55.998Z,22.04
2023-04-10T09:14:27.291Z,21.72
2023-04-10T09:17:12.002Z,21.92
2023-04-10T09:19:41.936Z,21.40
2023-04-10T09:22:12.141Z,20.84
2023-04-10T09:24:43.889Z,20.12
2023-04-10T09:27:29.709Z,19.58
2023-04-10T09:29:59.043Z,19.40
2023-04-10T09:32:44.331Z,18.98
2023-04-10T09:35:15.878Z,19.65
2023-04-10T09:37:47.319Z,20.05
2023-04-10T09:40:27.066Z,20.27
2023-04-10T09:42:58.046Z,19.68
2023-04-10T09:45:27.562Z,19.82
2023-04-10T09:48:08.447Z,20.34
2023-04-10T09:50:40.421Z,21.23
2023-04-10T09:53:15.009Z,20.80
2023-04-10T09:55:44.376Z,21.40
2023-04-10T09:58:14.821Z,20.80
2023-04-10T10:00:50.518Z,19.94
2023-04-10T10:03:23.733Z,19.68
2023-04-10T10:05:52.891Z,19.24
2023-04-10T10:08:22.928Z,19.88
2023-04-10T10:10:55.619Z,20.10
2023-04-10T10:13:29.923Z,21.22
2023-04-10T10:16:05.110Z,20.96
2023-04-10T10:18:46.719Z,21.90
2023-04-10T10:21:16.860Z,21.98
2023-04-10T10:23:49.642Z,22.49
2023-04-10T10:26:21.361Z,23.27
2023-04-10T10:28:53.794Z,23.50
2023-04-10T10:31:25.823Z,23.56
2023-04-10T10:33:56.846Z,23.53
2023-04-10T10:36:28.109Z,21.58
2023-04-10T10:39:09.647Z,20.84
2023-04-10T10:41:50.162Z,20.37
2023-04-10T10:44:46.407Z,19.52
2023-04-10T10:47:20.368Z,19.51
2023-04-10T10:50:00.720Z,19.06
2023-04-10T10:52:51.921Z,19.70
2023-04-10T10:55:28.377Z,19.33
2023-04-10T10:58:01.668Z,18.74
2023-04-10T11:00:52.859Z,19.48
2023-04-10T11:03:23.185Z,20.06
2023-04-10T11:05:56.707Z,20.73
2023-04-10T11:08:41.082Z,21.44
2023-04-10T11:11:13.574Z,22.64
2023-04-10T11:13:56.779Z,23.04
2023-04-10T11:16:33.602Z,23.55
2023-04-10T11:19:15.803Z,23.53
2023-04-10T11:21:58.699Z,24.08
2023-04-10T11:24:29.003Z,23.61
2023-04-10T11:27:00.479Z,23.32
2023-04-10T11:29:32.304Z,23.12
2023-04-10T11:32:07.085Z,22.78
2023-04-10T11:34:46.197Z,22.05
2023-04-10T11:37:24.513Z,21.31
2023-04-10T11:40:07.618Z,21.65
2023-04-10T11:42:37.001Z,21.95
2023-04-10T11:45:29.010Z,22.25
2023-04-10T11:48:00.454Z,22.75
2023-04-10T11:50:32.894Z,22.27
2023-04-10T11:53:02.349Z,22.47
2023-04-10T11:55:40.124Z,22.49
2023-04-10T11:58:26.608Z,20.91
2023-04-10T12:01:04.752Z,19.84
2023-04-10T12:03:40.694Z,20.11
2023-04-10T12:06:15.797Z,20.61
2023-04-10T12:08:52.727Z,21.25
2023-04-10T12:11:24.917Z,22.00
2023-04-10T12:13:56.088Z,22.27
2023-04-10T12:16:28.239Z,22.49
2023-04-10T12:18:58.284Z,22.16
2023-04-10T12:21:27.928Z,20.94
2023-04-10T12:23:57.139Z,19.66
2023-04-10T12:26:27.631Z,18.55
2023-04-10T12:28:58.473Z,18.13
2023-04-10T12:31:31.276Z,17.56
2023-04-10T12:34:05.803Z,17.19
2023-04-10T12:36:35.495Z,16.49
2023-04-10T12:39:06.544Z,16.62
2023-04-10T12:41:38.024Z,16.19
2023-04-10T12:44:15.762Z,15.35
2023-04-10T12:46:46.792Z,15.06
2023-04-10T12:49:19.197Z,14.88
2023-04-10T12:51:50.852Z,14.87
2023-04-10T12:54:30.078Z,14.50
2023-04-10T12:57:00.273Z,14.87
2023-04-10T12:59:33.050Z,15.88
2023-04-10T13:02:02.150Z,16.59
2023-04-10T13:04:33.765Z,17.52
2023-04-10T13:07:03.634Z,17.88
2023-04-10T13:09:32.745Z,17.59
2023-04-10T13:12:02.380Z,18.33
2023-04-10T13:14:32.400Z,18.82
2023-04-10T13:17:01.425Z,18.71
2023-04-10T13:19:31.487Z,19.11
2023-04-10T13:22:02.774Z,18.66
2023-04-10T13:24:32.238Z,17.74
2023-04-10T13:27:02.574Z,17.05
2023-04-10T13:29:31.934Z,16.92
2023-04-10T13:32:02.133Z,16.76
2023-04-10T13:34:34.991Z,16.72
2023-04-10T13:37:04.234Z,17.16
2023-04-10T13:39:33.832Z,17.71
2023-04-10T13:42:03.274Z,17.69
2023-04-10T13:44:32.960Z,17.40
2023-04-10T13:47:02.725Z,16.65
2023-04-10T13:49:32.312Z,17.10
2023-04-10T13:52:02.212Z,16.72
2023-04-10T13:54:31.569Z,16.32
2023-04-10T13:57:01.681Z,16.12
2023-04-10T13:59:31.230Z,15.85
2023-04-10T14:02:01.310Z,15.61
2023-04-10T14:04:30.474Z,15.65
2023-04-10T14:07:01.010Z,15.89
2023-04-10T14:09:30.358Z,16.12
2023-04-10T14:11:59.729Z,15.85
2023-04-10T14:14:29.245Z,16.09
2023-04-10T14:16:58.920Z,16.01
2023-04-10T14:19:28.805Z,15.93
2023-04-10T14:21:57.804Z,16.21
2023-04-10T14:24:26.730Z,16.85
2023-04-10T14:26:58.769Z,17.42
2023-04-10T14:32:02.248Z,17.18
2023-04-10T14:34:32.370Z,17.02
2023-04-10T14:37:03.516Z,17.30
2023-04-10T14:39:35.015Z,17.34
2023-04-10T14:42:04.475Z,17.48
2023-04-10T14:44:35.350Z,17.75
2023-04-10T14:47:07.533Z,18.19
2023-04-10T14:49:38.417Z,18.16
2023-04-10T14:52:09.524Z,17.85
2023-04-10T14:54:40.911Z,18.02
2023-04-10T14:57:11.699Z,18.53
2023-04-10T14:59:40.572Z,19.27
2023-04-10T15:02:10.185Z,18.99
2023-04-10T15:04:39.406Z,18.90
2023-04-10T15:07:08.883Z,19.22
2023-04-10T15:09:38.419Z,19.43
2023-04-10T15:12:08.384Z,19.69
2023-04-10T15:14:38.824Z,19.87
2023-04-10T15:17:08.296Z,19.57
2023-04-10T15:19:38.084Z,19.04
2023-04-10T15:22:07.728Z,19.27
2023-04-10T15:24:49.332Z,19.25
2023-04-10T15:27:22.835Z,19.54
2023-04-10T15:29:52.204Z,19.94
2023-04-10T15:32:21.386Z,20.45
2023-04-10T15:34:51.230Z,19.97
2023-04-10T15:37:22.134Z,20.28
2023-04-10T15:39:51.850Z,20.35
2023-04-10T15:42:21.708Z,19.87
2023-04-10T15:44:51.941Z,19.44
2023-04-10T15:47:21.369Z,19.38
2023-04-10T15:49:50.838Z,19.44
2023-04-10T15:52:19.730Z,19.38
2023-04-10T15:54:51.264Z,19.61
2023-04-10T15:57:21.976Z,20.14
2023-04-10T15:59:54.614Z,20.12
2023-04-10T16:02:24.191Z,21.06
2023-04-10T16:04:54.407Z,20.73
2023-04-10T16:07:26.655Z,20.93
2023-04-10T16:09:57.559Z,20.84
2023-04-10T16:12:27.348Z,21.40
2023-04-10T16:14:57.954Z,21.48
2023-04-10T16:17:27.432Z,21.88
2023-04-10T16:19:58.235Z,21.77
2023-04-10T16:22:28.588Z,22.16
2023-04-10T16:24:58.187Z,22.31
2023-04-10T16:27:28.143Z,22.71
2023-04-10T16:29:57.767Z,23.19
2023-04-10T16:32:28.436Z,23.18
2023-04-10T16:34:59.396Z,23.37
2023-04-10T16:37:28.373Z,23.79
2023-04-10T16:39:58.690Z,23.69
2023-04-10T16:42:28.020Z,23.57
2023-04-10T16:44:59.432Z,23.54
2023-04-10T16:47:29.532Z,23.77
2023-04-10T16:49:58.793Z,23.89
2023-04-10T16:52:33.190Z,24.12
2023-04-10T16:55:02.857Z,24.17
2023-04-10T16:57:34.006Z,24.23
2023-04-10T17:00:03.381Z,24.26
2023-04-10T17:02:34.809Z,24.46
2023-04-10T17:05:05.050Z,24.47
2023-04-10T17:07:35.341Z,24.68
2023-04-10T17:10:05.923Z,25.00
2023-04-10T17:12:36.882Z,25.17
2023-04-10T17:15:07.870Z,25.16
2023-04-10T17:17:37.453Z,25.32
2023-04-10T17:20:10.443Z,25.47
2023-04-10T17:22:41.343Z,25.78
2023-04-10T17:25:11.863Z,25.89
2023-04-10T17:27:41.454Z,26.22
2023-04-10T17:30:15.631Z,26.37
2023-04-10T17:32:46.103Z,26.71
2023-04-10T17:35:16.445Z,27.01
2023-04-10T17:37:45.508Z,27.34
2023-04-10T17:40:14.826Z,27.34
2023-04-10T17:42:44.848Z,27.60
2023-04-10T17:45:14.493Z,27.89
2023-04-10T17:47:44.938Z,28.24
2023-04-10T17:50:14.661Z,28.81
2023-04-10T17:52:44.997Z,29.61
2023-04-10T17:55:20.516Z,29.98
2023-04-10T17:57:51.247Z,30.58
2023-04-10T18:00:22.116Z,30.85
2023-04-10T18:02:53.602Z,31.07
2023-04-10T18:05:23.385Z,31.78
2023-04-10T18:07:52.546Z,32.37
2023-04-10T18:10:22.285Z,32.77
2023-04-10T18:12:51.442Z,33.07
2023-04-10T18:15:20.509Z,33.46
2023-04-10T18:17:49.599Z,33.78
2023-04-10T18:20:19.834Z,33.87
2023-04-10T18:22:49.560Z,34.32
2023-04-10T18:25:18.903Z,34.55
2023-04-10T18:28:12.574Z,34.79
2023-04-10T18:30:40.475Z,34.86
2023-04-10T18:33:11.260Z,35.18
2023-04-10T18:35:41.842Z,35.45
2023-04-10T18:38:11.593Z,35.29
2023-04-10T18:40:42.070Z,35.57
2023-04-10T18:43:11.707Z,35.65
2023-04-10T18:45:42.483Z,35.63
2023-04-10T18:48:11.499Z,35.90
2023-04-10T18:50:40.257Z,36.01
2023-04-10T18:53:10.201Z,35.96
2023-04-10T18:55:39.775Z,36.18
2023-04-10T18:58:08.875Z,36.08
2023-04-10T19:00:38.141Z,36.24
2023-04-10T19:03:08.323Z,36.23
2023-04-10T19:05:37.595Z,36.27
2023-04-10T19:08:06.818Z,37.42
2023-04-10T19:10:38.547Z,37.44
2023-04-10T19:13:12.481Z,38.23
2023-04-10T19:15:48.116Z,38.52
2023-04-10T19:18:17.733Z,38.98
2023-04-10T19:20:49.973Z,39.40
2023-04-10T19:23:25.172Z,39.39
2023-04-10T19:25:55.647Z,39.46
2023-04-10T19:28:26.136Z,39.44
2023-04-10T19:30:56.298Z,39.30
2023-04-10T19:33:27.113Z,39.58
2023-04-10T19:35:56.718Z,39.58
2023-04-10T19:38:27.921Z,39.82
2023-04-10T19:40:57.489Z,40.57
2023-04-10T19:43:27.285Z,41.22
2023-04-10T19:46:00.209Z,41.63
2023-04-10T19:48:29.883Z,41.80
2023-04-10T19:51:05.613Z,41.80
2023-04-10T19:53:35.118Z,41.86
2023-04-10T19:56:04.473Z,42.32
2023-04-10T19:58:40.714Z,42.70
2023-04-10T20:01:12.159Z,42.60
2023-04-10T20:03:41.773Z,43.33
2023-04-10T20:06:12.117Z,43.21
2023-04-10T20:08:41.831Z,43.33
2023-04-10T20:11:11.294Z,43.84
2023-04-10T20:13:42.083Z,43.69
2023-04-10T20:16:12.399Z,43.81
2023-04-10T20:18:41.742Z,44.04
2023-04-10T20:21:11.772Z,44.14
2023-04-10T20:23:41.751Z,44.30
2023-04-10T20:26:12.538Z,44.52
2023-04-10T20:28:41.897Z,44.69
2023-04-10T20:31:13.099Z,44.72
2023-04-10T20:33:42.844Z,45.00
2023-04-10T20:36:13.571Z,45.17
2023-04-10T20:38:43.130Z,45.39
2023-04-10T20:41:12.985Z,45.43
2023-04-10T20:43:42.887Z,45.53
2023-04-10T20:46:12.949Z,45.29
2023-04-10T20:48:42.405Z,45.41
2023-04-10T20:51:11.664Z,45.41
2023-04-10T20:53:41.022Z,45.67
2023-04-10T20:56:11.000Z,45.86
2023-04-10T20:58:40.111Z,45.95
2023-04-10T21:01:10.930Z,46.07
2023-04-10T21:03:40.100Z,46.27
2023-04-10T21:06:09.992Z,46.32
2023-04-10T21:08:39.153Z,46.48
2023-04-10T21:11:08.626Z,46.71
2023-04-10T21:13:38.734Z,46.81
2023-04-10T21:16:08.690Z,46.82
2023-04-10T21:18:38.373Z,47.07
2023-04-10T21:21:08.030Z,46.98
2023-04-10T21:23:37.368Z,47.40
2023-04-10T21:26:06.777Z,47.59
2023-04-10T21:28:36.355Z,47.57
2023-04-10T21:31:06.038Z,47.50
2023-04-10T21:33:35.973Z,47.60
2023-04-10T21:36:07.330Z,48.04
2023-04-10T21:38:37.659Z,48.56
2023-04-10T21:41:07.622Z,49.12
2023-04-10T21:43:37.472Z,49.17
2023-04-10T21:46:08.493Z,49.42
2023-04-10T21:48:37.501Z,49.63
2023-04-10T21:51:06.651Z,49.85
2023-04-10T21:53:35.339Z,50.15
2023-04-10T21:56:04.226Z,50.25
2023-04-10T21:58:33.428Z,50.44
2023-04-10T22:01:03.187Z,50.48
2023-04-10T22:03:33.235Z,50.74
2023-04-10T22:06:03.063Z,50.69
2023-04-10T22:08:33.039Z,50.52
2023-04-10T22:11:05.274Z,50.27
2023-04-10T22:13:36.328Z,50.22
2023-04-10T22:16:06.673Z,50.34
2023-04-10T22:18:36.417Z,50.37
2023-04-10T22:21:06.050Z,50.08
2023-04-10T22:23:35.773Z,50.31
2023-04-10T22:26:05.210Z,50.87
2023-04-10T22:28:34.776Z,50.96
2023-04-10T22:31:04.648Z,51.19
2023-04-10T22:33:35.665Z,51.34
2023-04-10T22:36:06.270Z,51.40
2023-04-10T22:38:36.744Z,52.11
2023-04-10T22:41:07.111Z,52.55
2023-04-10T22:43:37.392Z,52.43
2023-04-10T22:46:07.066Z,52.59
2023-04-10T22:48:37.368Z,52.94
2023-04-10T22:51:14.358Z,53.09
2023-04-10T22:53:45.784Z,52.93
2023-04-10T22:56:16.874Z,53.13
2023-04-10T22:58:47.400Z,52.81
2023-04-10T23:01:18.705Z,53.37
2023-04-10T23:03:54.310Z,53.68
2023-04-10T23:06:24.422Z,53.89
2023-04-10T23:08:54.788Z,54.07
2023-04-10T23:11:24.312Z,54.11
2023-04-10T23:13:53.742Z,54.76
2023-04-10T23:16:23.301Z,55.25
2023-04-10T23:18:52.062Z,55.58
2023-04-10T23:21:21.331Z,55.40
2023-04-10T23:23:50.332Z,55.42
2023-04-10T23:26:19.734Z,55.08
2023-04-10T23:28:49.109Z,54.46
2023-04-10T23:31:18.309Z,53.43
2023-04-10T23:33:47.091Z,53.38
2023-04-10T23:36:16.130Z,54.12
2023-04-10T23:38:45.091Z,54.12
2023-04-10T23:41:14.136Z,54.43
2023-04-10T23:43:43.146Z,54.51
2023-04-10T23:46:12.427Z,54.79
2023-04-10T23:48:42.037Z,54.64
2023-04-10T23:51:11.328Z,54.53
2023-04-10T23:53:41.106Z,55.23
2023-04-10T23:56:10.174Z,54.99
2023-04-10T23:58:39.519Z,54.68
